Time;durP1;ratioP1;P1;durP2;ratioP2;P2;SDS_P1;SDS_P2;PMS_P1;PMS_P2;Temp;Humidity;BMP_temperature;BMP_pressure;BME280_temperature;BME280_humidity;BME280_pressure;Samples;Min_cycle;Max_cycle;Signal;HPM_P1;HPM_P2
2021/01/06 00:01:46;;;;;;;1.65;1.17;;;;;;;18.46;47.26;101950.59;5021438;28;20037;-69
2021/01/06 00:04:11;;;;;;;3.15;1.60;;;;;;;18.43;47.33;101953.19;5016609;28;20026;-69
2021/01/06 00:06:37;;;;;;;1.60;1.25;;;;;;;18.43;47.24;101947.97;5032656;28;20029;-69
2021/01/06 00:09:05;;;;;;;2.88;1.70;;;;;;;18.42;47.42;101951.44;5019285;28;20483;-70
2021/01/06 00:11:35;;;;;;;1.92;1.20;;;;;;;18.38;47.25;101941.78;5030053;28;20029;-70
2021/01/06 00:14:01;;;;;;;1.95;1.38;;;;;;;18.40;47.52;101957.50;5032200;28;20029;-70
2021/01/06 00:16:27;;;;;;;2.72;1.55;;;;;;;18.40;47.26;101954.88;5031884;28;20044;-70
2021/01/06 00:18:52;;;;;;;2.78;1.80;;;;;;;18.36;47.29;101948.72;5018831;28;20048;-70
2021/01/06 00:21:18;;;;;;;1.58;1.38;;;;;;;18.38;47.24;101954.88;5003463;28;20034;-71
2021/01/06 00:23:43;;;;;;;2.38;1.50;;;;;;;18.38;47.28;101953.97;5018052;28;20030;-67
2021/01/06 00:26:08;;;;;;;2.08;1.25;;;;;;;18.33;47.28;101951.28;5041979;28;20083;-70
2021/01/06 00:28:34;;;;;;;2.05;1.45;;;;;;;18.36;47.41;101960.94;4986440;28;20034;-69
2021/01/06 00:31:00;;;;;;;2.33;1.38;;;;;;;18.32;47.21;101949.53;4987953;28;20033;-70
2021/01/06 00:33:31;;;;;;;1.73;1.02;;;;;;;18.30;47.43;101951.28;5000696;28;20057;-70
2021/01/06 00:36:00;;;;;;;3.25;1.38;;;;;;;18.34;47.30;101952.19;5016031;28;20025;-69
2021/01/06 00:38:27;;;;;;;2.28;1.42;;;;;;;18.31;47.33;101953.00;5019531;28;20067;-69
2021/01/06 00:40:53;;;;;;;1.58;1.10;;;;;;;18.32;47.17;101953.88;5008984;28;20021;-69
2021/01/06 00:43:19;;;;;;;2.40;1.30;;;;;;;18.33;47.56;101953.03;5031131;28;20763;-70
2021/01/06 00:45:44;;;;;;;1.80;1.30;;;;;;;18.31;47.27;101953.00;5009525;28;20045;-70
2021/01/06 00:48:11;;;;;;;2.72;1.48;;;;;;;18.30;47.27;101948.66;5022472;28;20037;-71
2021/01/06 00:50:36;;;;;;;2.13;1.30;;;;;;;18.26;47.12;101944.22;5010037;28;20116;-70
2021/01/06 00:53:23;;;;;;;2.00;1.20;;;;;;;18.30;47.12;101945.16;5019605;28;20553;-70
2021/01/06 00:55:50;;;;;;;1.70;1.10;;;;;;;18.27;47.18;101946.00;5032278;28;20025;-70
2021/01/06 00:58:16;;;;;;;3.10;1.58;;;;;;;18.26;47.38;101935.50;5015034;28;20033;-70
2021/01/06 01:00:41;;;;;;;1.70;1.13;;;;;;;18.27;47.54;101950.34;5031312;28;20029;-70
2021/01/06 01:03:06;;;;;;;1.63;1.30;;;;;;;18.23;47.08;101943.31;5032015;28;20053;-70
2021/01/06 01:05:33;;;;;;;2.97;1.30;;;;;;;18.27;47.32;101951.22;4981407;28;20026;-71
2021/01/06 01:08:00;;;;;;;2.03;1.45;;;;;;;18.24;47.29;101952.91;5016002;28;20072;-70
2021/01/06 01:10:39;;;;;;;1.88;1.33;;;;;;;18.22;47.30;101942.41;5020006;28;20037;-70
2021/01/06 01:13:16;;;;;;;2.33;1.85;;;;;;;18.24;47.28;101945.06;5031385;28;20547;-70
2021/01/06 01:15:45;;;;;;;2.17;1.33;;;;;;;18.24;47.24;101950.31;5026264;28;20037;-70
2021/01/06 01:18:16;;;;;;;1.73;1.25;;;;;;;18.23;47.29;101949.41;5024558;28;20075;-70
2021/01/06 01:20:46;;;;;;;1.80;1.40;;;;;;;18.18;47.30;101941.50;5031539;28;20063;-70
2021/01/06 01:23:13;;;;;;;1.38;1.08;;;;;;;18.21;47.06;101952.00;5016139;28;20044;-70
2021/01/06 01:25:38;;;;;;;1.80;1.27;;;;;;;18.19;47.28;101947.59;5001260;28;20543;-71
2021/01/06 01:28:04;;;;;;;1.52;1.33;;;;;;;18.19;47.37;101947.59;5032414;28;20038;-76
2021/01/06 01:30:29;;;;;;;2.47;1.20;;;;;;;18.23;47.41;101951.16;5028291;28;20116;-76
2021/01/06 01:32:55;;;;;;;1.85;1.05;;;;;;;18.31;46.88;101949.50;5037219;28;20040;-76
2021/01/06 01:35:27;;;;;;;1.98;1.15;;;;;;;18.36;46.73;101955.69;5036924;28;20057;-76
2021/01/06 01:37:54;;;;;;;1.58;1.17;;;;;;;18.35;46.86;101954.81;5022282;28;20025;-76
2021/01/06 01:40:22;;;;;;;3.85;1.60;;;;;;;18.40;46.82;101949.66;5030569;28;20026;-77
2021/01/06 01:42:59;;;;;;;2.00;1.30;;;;;;;18.46;46.66;101952.34;5017607;28;20022;-77
2021/01/06 01:45:27;;;;;;;1.88;1.15;;;;;;;18.46;46.60;101947.09;5016920;28;20025;-70
2021/01/06 01:48:08;;;;;;;1.17;0.90;;;;;;;18.43;46.87;101942.72;5034557;28;20476;-70
2021/01/06 01:50:33;;;;;;;1.83;1.42;;;;;;;18.47;46.48;101943.63;5020790;28;20391;-77
2021/01/06 01:53:06;;;;;;;1.75;1.35;;;;;;;18.48;46.60;101945.38;5019438;28;20037;-70
2021/01/06 01:55:33;;;;;;;;;;;;;;;18.49;46.60;101955.00;5036047;28;20025;-70
2021/01/06 01:58:03;;;;;;;1.70;1.00;;;;;;;18.50;46.42;101944.53;5035966;28;19913;-77
2021/01/06 02:00:32;;;;;;;1.92;1.10;;;;;;;18.55;46.50;101957.72;5036642;28;20388;-77
2021/01/06 02:03:30;;;;;;;1.95;1.20;;;;;;;18.48;46.70;101950.63;5046643;28;20060;-76
2021/01/06 02:06:01;;;;;;;1.48;0.98;;;;;;;18.55;46.38;101944.63;5055972;28;20021;-77
2021/01/06 02:08:33;;;;;;;1.92;1.00;;;;;;;18.54;46.49;101943.72;5059602;28;20028;-77
2021/01/06 02:11:07;;;;;;;1.05;0.93;;;;;;;18.53;46.38;101952.44;5059059;28;20025;-77
2021/01/06 02:13:41;;;;;;;1.75;1.50;;;;;;;18.60;46.41;101949.91;5056663;28;20442;-77
2021/01/06 02:16:18;;;;;;;1.20;1.00;;;;;;;18.60;46.30;101950.81;5059222;28;20479;-76
2021/01/06 02:18:44;;;;;;;1.33;1.05;;;;;;;18.55;46.68;101942.88;5059323;28;20029;-77
2021/01/06 02:21:14;;;;;;;1.50;1.10;;;;;;;18.56;46.69;101946.38;5060668;28;20032;-77
2021/01/06 02:23:42;;;;;;;1.20;0.80;;;;;;;18.61;46.26;101949.06;5062595;28;20024;-77
2021/01/06 02:26:08;;;;;;;1.60;0.80;;;;;;;18.58;46.60;101952.53;5039393;28;20434;-77
2021/01/06 02:28:34;;;;;;;1.65;1.17;;;;;;;18.58;46.72;101944.66;5055734;28;20037;-70
2021/01/06 02:30:59;;;;;;;2.10;1.25;;;;;;;18.62;46.29;101938.59;5035851;28;20566;-70
2021/01/06 02:33:25;;;;;;;1.23;0.82;;;;;;;18.55;46.69;101928.91;5053578;28;20124;-70
2021/01/06 02:35:52;;;;;;;1.92;1.10;;;;;;;18.60;46.50;101934.19;5054254;28;20040;-70
2021/01/06 02:38:19;;;;;;;2.78;1.00;;;;;;;18.60;46.38;101940.31;5036725;28;20361;-70
2021/01/06 02:40:45;;;;;;;1.60;1.15;;;;;;;18.58;46.48;101934.19;5035776;28;20025;-70
2021/01/06 02:43:11;;;;;;;2.20;1.50;;;;;;;18.57;46.41;101935.88;5052917;28;20090;-70
2021/01/06 02:45:36;;;;;;;1.42;0.80;;;;;;;18.63;46.62;101940.38;5054413;28;20029;-70
2021/01/06 02:48:02;;;;;;;1.38;1.00;;;;;;;18.61;46.42;101936.84;5054304;28;20043;-70
2021/01/06 02:50:29;;;;;;;2.53;1.08;;;;;;;18.59;46.45;101933.31;5055607;28;20029;-67
2021/01/06 02:52:59;;;;;;;1.58;1.00;;;;;;;18.63;46.50;101934.25;5052133;28;20052;-70
2021/01/06 02:55:27;;;;;;;1.50;0.88;;;;;;;18.65;46.36;101937.78;5052724;28;20033;-70
2021/01/06 02:57:54;;;;;;;1.13;0.73;;;;;;;18.61;46.76;101933.34;5060135;28;20064;-70
2021/01/06 03:00:23;;;;;;;1.52;0.90;;;;;;;18.64;46.67;101936.88;5051466;28;20386;-70
2021/01/06 03:02:49;;;;;;;1.70;0.80;;;;;;;18.62;46.26;101928.13;5057178;28;20048;-69
2021/01/06 03:05:35;;;;;;;1.30;0.90;;;;;;;18.63;46.31;101934.25;5039085;28;20029;-70
2021/01/06 03:08:00;;;;;;;3.05;1.50;;;;;;;18.66;46.30;101931.66;5061619;28;20419;-70
2021/01/06 03:10:27;;;;;;;1.55;1.17;;;;;;;18.66;46.24;101922.06;5012410;28;20100;-70
2021/01/06 03:12:54;;;;;;;1.80;1.00;;;;;;;18.67;46.34;101931.69;5058983;28;20511;-77
2021/01/06 03:15:22;;;;;;;1.70;0.85;;;;;;;18.67;46.35;101931.69;5049215;28;20016;-69
2021/01/06 03:17:49;;;;;;;1.83;0.90;;;;;;;18.71;46.24;101932.59;5032191;28;20369;-70
2021/01/06 03:20:31;;;;;;;1.05;0.75;;;;;;;18.67;46.29;101928.19;5065672;28;20505;-70
2021/01/06 03:23:03;;;;;;;2.85;1.00;;;;;;;18.63;46.52;101921.16;5058436;28;20124;-70
2021/01/06 03:25:28;;;;;;;1.35;0.98;;;;;;;18.68;46.33;101924.72;5037009;28;20032;-77
2021/01/06 03:27:55;;;;;;;0.80;0.60;;;;;;;18.63;46.42;101916.78;5065695;28;20029;-77
2021/01/06 03:30:24;;;;;;;1.35;0.93;;;;;;;18.65;46.57;101925.56;5055565;28;20037;-76
2021/01/06 03:32:54;;;;;;;1.48;0.95;;;;;;;18.68;46.39;101925.59;5056898;28;20487;-77
2021/01/06 03:35:35;;;;;;;2.25;0.90;;;;;;;18.68;46.27;101914.22;5047293;28;20143;-78
2021/01/06 03:38:16;;;;;;;1.08;0.80;;;;;;;18.64;46.49;101913.31;5035573;28;20029;-77
2021/01/06 03:40:47;;;;;;;1.58;1.10;;;;;;;18.71;46.65;101917.75;5050873;28;20072;-77
2021/01/06 03:43:15;;;;;;;2.25;1.25;;;;;;;18.64;46.34;101908.06;5055226;28;20029;-77
2021/01/06 03:45:43;;;;;;;2.30;1.10;;;;;;;18.66;46.36;101905.47;5045843;28;20387;-77
2021/01/06 03:48:27;;;;;;;1.55;1.30;;;;;;;18.69;46.28;101902.91;5073490;28;20035;-76
2021/01/06 03:50:55;;;;;;;;;;;;;;;18.69;46.34;101903.78;5057990;28;20024;-70
2021/01/06 03:53:35;;;;;;;1.48;1.33;;;;;;;18.67;46.35;101900.25;5055608;28;20351;-70
2021/01/06 03:56:05;;;;;;;1.38;0.77;;;;;;;18.72;46.27;101893.31;5038502;28;20078;-70
2021/01/06 03:58:49;;;;;;;1.88;0.80;;;;;;;18.70;46.79;101897.63;5037408;28;20108;-70
2021/01/06 04:01:25;;;;;;;1.67;1.10;;;;;;;18.66;46.46;101889.75;5049494;28;20034;-70
2021/01/06 04:04:00;;;;;;;1.17;0.70;;;;;;;18.70;46.44;101895.03;5021795;28;20038;-70
2021/01/06 04:06:28;;;;;;;1.45;0.80;;;;;;;18.67;46.47;101888.88;5018377;28;20040;-70
2021/01/06 04:08:56;;;;;;;1.00;0.73;;;;;;;18.68;46.53;101891.53;5017597;28;20419;-71
2021/01/06 04:11:27;;;;;;;1.70;0.85;;;;;;;18.71;46.32;101891.53;5019661;28;20044;-70
2021/01/06 04:13:52;;;;;;;1.05;0.70;;;;;;;18.68;46.35;101891.53;5032997;28;20033;-70
2021/01/06 04:16:18;;;;;;;1.10;0.80;;;;;;;18.65;46.24;101881.00;5015547;28;20030;-70
2021/01/06 04:18:44;;;;;;;1.02;0.70;;;;;;;18.72;46.23;101885.44;5025079;28;20036;-70
2021/01/06 04:21:10;;;;;;;2.60;0.85;;;;;;;18.70;46.13;101878.41;5022114;28;20380;-71
2021/01/06 04:23:35;;;;;;;1.20;0.80;;;;;;;18.68;46.23;101878.44;4998638;28;20480;-70
2021/01/06 04:26:01;;;;;;;1.30;0.90;;;;;;;18.72;46.26;101882.81;5029145;28;20044;-70
2021/01/06 04:28:29;;;;;;;1.33;0.80;;;;;;;18.72;46.27;101880.19;5022203;28;20039;-70
2021/01/06 04:31:01;;;;;;;1.73;0.95;;;;;;;18.68;46.34;101872.31;5024620;28;20021;-70
2021/01/06 04:33:30;;;;;;;1.15;0.88;;;;;;;18.69;46.11;101872.34;5022873;28;20031;-70
2021/01/06 04:35:59;;;;;;;0.80;0.70;;;;;;;18.72;46.31;101872.34;5021811;28;20033;-70
2021/01/06 04:38:27;;;;;;;1.40;1.10;;;;;;;18.70;46.24;101874.06;5014406;28;20357;-70
2021/01/06 04:40:57;;;;;;;1.00;0.73;;;;;;;18.70;46.25;101871.44;5012140;28;20029;-70
2021/01/06 04:43:31;;;;;;;1.00;0.80;;;;;;;18.73;46.57;101876.72;5031834;28;20424;-69
2021/01/06 04:46:03;;;;;;;1.42;0.90;;;;;;;18.71;46.37;101877.56;5031649;28;20040;-69
2021/01/06 04:48:55;;;;;;;0.82;0.60;;;;;;;18.71;46.08;101878.44;5032605;28;20386;-76
2021/01/06 04:51:27;;;;;;;1.27;0.90;;;;;;;18.70;46.27;101868.81;5020697;28;20472;-77
2021/01/06 04:54:09;;;;;;;0.65;0.60;;;;;;;18.68;46.23;101873.19;5016157;28;20091;-76
2021/01/06 04:56:54;;;;;;;1.40;0.80;;;;;;;18.72;46.27;101872.34;5020560;28;20029;-77
2021/01/06 04:59:36;;;;;;;1.45;0.75;;;;;;;18.70;46.07;101866.19;5011624;28;20495;-77
2021/01/06 05:02:34;;;;;;;0.93;0.73;;;;;;;18.70;46.25;101868.81;5018823;28;20077;-69
2021/01/06 05:05:42;;;;;;;0.82;0.68;;;;;;;18.75;46.24;101872.38;5055876;28;20099;-76
2021/01/06 05:08:38;;;;;;;1.40;0.98;;;;;;;18.73;46.10;101858.38;5037860;28;20411;-76
2021/01/06 05:11:25;;;;;;;1.08;0.73;;;;;;;18.72;46.24;101867.09;5054850;28;20039;-77
2021/01/06 05:14:00;;;;;;;1.52;0.80;;;;;;;18.77;46.10;101861.91;5052484;28;20024;-69
2021/01/06 05:16:41;;;;;;;0.95;0.70;;;;;;;18.74;46.19;101861.88;5058434;28;20392;-70
2021/01/06 05:19:15;;;;;;;0.93;0.63;;;;;;;18.74;46.16;101869.72;5057005;28;20063;-69
2021/01/06 05:21:40;;;;;;;0.88;0.68;;;;;;;18.75;46.16;101867.13;5037772;28;20495;-70
2021/01/06 05:24:11;;;;;;;1.48;0.70;;;;;;;18.70;46.51;101863.56;5034694;28;20044;-69
2021/01/06 05:26:36;;;;;;;1.23;0.80;;;;;;;18.73;46.13;101862.75;5042187;28;20033;-68
2021/01/06 05:29:06;;;;;;;1.35;0.73;;;;;;;18.79;46.09;101870.69;5002979;28;20057;-69
2021/01/06 05:31:32;;;;;;;1.50;0.90;;;;;;;18.75;46.03;101861.00;5031500;28;20052;-69
2021/01/06 05:33:58;;;;;;;1.40;0.70;;;;;;;18.69;46.07;101861.84;5011692;28;20170;-69
2021/01/06 05:36:29;;;;;;;0.88;0.75;;;;;;;18.75;46.10;101866.25;5016907;28;20066;-76
2021/01/06 05:38:54;;;;;;;1.73;0.80;;;;;;;18.75;45.98;101869.75;5053116;28;20028;-69
2021/01/06 05:41:20;;;;;;;1.90;0.80;;;;;;;18.71;46.06;101870.56;5038308;28;20382;-69
2021/01/06 05:43:50;;;;;;;0.70;0.60;;;;;;;18.76;45.99;101874.13;5007976;28;20029;-69
2021/01/06 05:46:30;;;;;;;1.63;0.90;;;;;;;18.74;45.77;101869.72;5036177;28;20033;-69
2021/01/06 05:49:03;;;;;;;1.10;0.70;;;;;;;18.72;45.98;101871.47;5027171;28;20036;-70
2021/01/06 05:51:30;;;;;;;;;;;;;;;18.77;46.01;101875.00;5054144;28;20024;-76
2021/01/06 05:54:01;;;;;;;1.10;0.63;;;;;;;18.76;45.96;101878.50;5062695;28;19948;-76
2021/01/06 05:56:51;;;;;;;1.15;0.82;;;;;;;18.75;46.03;101882.84;5070260;28;20025;-76
2021/01/06 05:59:39;;;;;;;0.57;0.50;;;;;;;18.78;46.15;101884.63;5066141;28;20048;-77
2021/01/06 06:02:07;;;;;;;0.90;0.80;;;;;;;18.77;45.98;101878.50;5047526;28;20037;-71
2021/01/06 06:05:11;;;;;;;0.90;0.68;;;;;;;18.77;46.03;101877.63;5052761;28;20041;-70
2021/01/06 06:08:02;;;;;;;1.65;0.73;;;;;;;18.76;45.97;101888.97;5050301;28;20032;-68
2021/01/06 06:10:49;;;;;;;0.55;0.55;;;;;;;18.79;46.09;101878.53;5059656;28;20618;-70
2021/01/06 06:13:39;;;;;;;1.30;0.63;;;;;;;18.88;45.69;101882.13;5038107;28;21234;-69
2021/01/06 06:16:08;;;;;;;5.20;0.85;;;;;;;18.91;45.69;101886.53;5055686;28;20029;-70
2021/01/06 06:18:54;;;;;;;2.58;1.00;;;;;;;18.93;45.72;101892.66;5060095;28;20124;-70
2021/01/06 06:21:28;;;;;;;1.27;0.75;;;;;;;19.00;45.77;101888.34;5059863;28;21756;-70
2021/01/06 06:24:32;;;;;;;1.73;1.10;;;;;;;18.96;45.64;101894.41;5055816;28;20047;-70
2021/01/06 06:27:03;;;;;;;1.65;0.73;;;;;;;19.02;46.07;101886.63;5024123;28;20041;-69
2021/01/06 06:30:03;;;;;;;1.63;0.70;;;;;;;19.08;45.82;101891.94;5052655;28;20108;-70
2021/01/06 06:32:30;;;;;;;1.17;0.82;;;;;;;19.04;45.95;101895.38;5062703;28;20431;-74
2021/01/06 06:35:17;;;;;;;2.35;0.65;;;;;;;19.05;46.06;101887.53;5067000;28;20082;-70
2021/01/06 06:37:58;;;;;;;2.38;0.68;;;;;;;19.06;46.01;101896.28;5060261;28;20059;-74
2021/01/06 06:40:25;;;;;;;1.95;1.02;;;;;;;19.02;46.07;101900.59;5049954;28;20024;-74
2021/01/06 06:43:03;;;;;;;1.83;0.90;;;;;;;19.08;46.17;101897.19;5057585;28;20025;-70
2021/01/06 06:45:40;;;;;;;2.88;1.02;;;;;;;19.06;45.92;101898.91;5055747;28;20052;-70
2021/01/06 06:48:12;;;;;;;2.28;0.77;;;;;;;19.00;46.13;101891.84;5051281;28;20032;-68
2021/01/06 06:51:11;;;;;;;1.27;0.82;;;;;;;19.09;46.01;101901.53;5059732;28;20028;-69
2021/01/06 06:53:56;;;;;;;1.02;0.80;;;;;;;19.06;46.08;101902.41;5052281;28;20025;-69
2021/01/06 06:56:54;;;;;;;1.65;1.00;;;;;;;19.05;46.28;101905.88;5071452;28;20028;-74
2021/01/06 06:59:24;;;;;;;2.38;1.10;;;;;;;19.11;45.84;101902.41;5025730;28;20369;-74
2021/01/06 07:01:51;;;;;;;1.15;0.80;;;;;;;19.06;46.06;101898.91;5058492;28;20048;-73
2021/01/06 07:04:27;;;;;;;1.50;0.80;;;;;;;19.04;46.13;101890.13;5046380;28;20123;-75
2021/01/06 07:06:56;;;;;;;1.05;0.70;;;;;;;19.11;46.23;101905.94;5039393;28;20112;-78
2021/01/06 07:09:32;;;;;;;1.35;0.80;;;;;;;19.10;45.94;101906.78;5053425;28;20036;-75
2021/01/06 07:12:10;;;;;;;1.30;0.70;;;;;;;19.06;46.24;101907.66;5021204;28;20112;-75
2021/01/06 07:14:39;;;;;;;1.20;0.90;;;;;;;19.11;46.31;101908.53;5059336;28;20025;-78
2021/01/06 07:17:13;;;;;;;1.08;0.80;;;;;;;19.13;45.88;101911.19;5053253;28;20086;-76
2021/01/06 07:19:57;;;;;;;0.93;0.80;;;;;;;19.02;46.02;101908.47;5054796;28;20027;-76
2021/01/06 07:22:31;;;;;;;3.08;1.00;;;;;;;19.11;46.00;101911.16;5060037;28;20037;-76
2021/01/06 07:25:11;;;;;;;0.93;0.70;;;;;;;19.09;46.01;101907.66;5044133;28;20373;-76
2021/01/06 07:27:37;;;;;;;1.65;0.82;;;;;;;19.09;45.95;101909.38;5031793;28;20112;-77
2021/01/06 07:30:04;;;;;;;2.25;0.95;;;;;;;19.08;45.90;101915.53;5022263;28;20086;-75
2021/01/06 07:32:43;;;;;;;1.65;1.05;;;;;;;19.10;45.66;101917.28;5049550;28;20128;-76
2021/01/06 07:35:25;;;;;;;2.10;1.20;;;;;;;19.07;45.39;101913.75;5052864;28;20033;-75
2021/01/06 07:37:58;;;;;;;2.55;1.25;;;;;;;19.04;45.82;101916.34;5030801;28;20562;-77
2021/01/06 07:40:45;;;;;;;2.67;1.58;;;;;;;19.08;45.45;101919.03;5042179;28;20072;-74
2021/01/06 07:43:10;;;;;;;3.25;1.67;;;;;;;19.04;45.33;101914.59;5051494;28;20072;-75
2021/01/06 07:46:03;;;;;;;2.15;1.45;;;;;;;19.00;45.65;101907.56;5035733;28;20060;-76
2021/01/06 07:48:45;;;;;;;3.03;1.73;;;;;;;19.04;45.60;101905.88;5048272;28;20079;-74
2021/01/06 07:51:43;;;;;;;5.53;2.00;;;;;;;18.98;45.62;101914.53;5033547;28;20025;-74
2021/01/06 07:54:09;;;;;;;4.35;1.60;;;;;;;18.97;45.74;101906.66;5022491;28;20506;-74
2021/01/06 07:56:40;;;;;;;5.93;1.42;;;;;;;18.95;45.75;101906.66;5024921;28;20124;-75
2021/01/06 07:59:45;;;;;;;2.67;1.42;;;;;;;18.94;45.79;101911.88;5053935;28;20498;-74
2021/01/06 08:02:13;;;;;;;2.33;1.20;;;;;;;18.94;45.58;101919.75;5006864;28;20095;-76
2021/01/06 08:04:57;;;;;;;5.63;2.00;;;;;;;18.99;45.60;101920.66;5033576;28;20036;-76
2021/01/06 08:07:27;;;;;;;2.45;1.25;;;;;;;18.99;45.45;101918.03;5032997;28;20033;-75
2021/01/06 08:09:53;;;;;;;2.92;1.30;;;;;;;18.97;45.69;101917.13;5034278;28;20029;-74
2021/01/06 08:12:35;;;;;;;4.18;1.48;;;;;;;18.94;45.85;101917.13;5029132;28;20021;-75
2021/01/06 08:15:19;;;;;;;3.40;1.35;;;;;;;18.94;45.66;101919.75;5034520;28;20057;-75
2021/01/06 08:17:49;;;;;;;;;;;;;;;18.97;45.37;101927.63;5033982;28;20399;-74
2021/01/06 08:20:25;;;;;;;4.10;1.30;;;;;;;18.92;45.66;101917.13;5037388;28;19920;-74
2021/01/06 08:23:20;;;;;;;3.17;1.58;;;;;;;18.88;45.67;101918.81;5036523;28;20052;-74
2021/01/06 08:26:20;;;;;;;5.63;1.83;;;;;;;18.97;45.33;101925.00;5048784;28;20029;-74
2021/01/06 08:28:45;;;;;;;2.85;1.20;;;;;;;18.96;45.53;101923.25;5033533;28;20017;-74
2021/01/06 08:31:17;;;;;;;4.47;1.85;;;;;;;18.95;45.63;101929.38;5000197;28;20036;-75
2021/01/06 08:33:53;;;;;;;4.18;1.63;;;;;;;18.96;45.41;101931.97;5018240;28;20029;-74
2021/01/06 08:36:29;;;;;;;2.70;1.52;;;;;;;18.92;45.45;101924.97;5033432;28;20022;-74
2021/01/06 08:39:15;;;;;;;1.98;0.80;;;;;;;18.94;45.64;101936.34;5015299;28;20499;-74
2021/01/06 08:41:41;;;;;;;2.50;1.38;;;;;;;18.97;45.23;101930.25;5033738;28;20052;-74
2021/01/06 08:44:07;;;;;;;2.65;1.40;;;;;;;18.94;45.56;101927.63;5033587;28;20036;-74
2021/01/06 08:46:35;;;;;;;2.08;1.10;;;;;;;18.94;45.51;101931.13;5015870;28;20037;-75
2021/01/06 08:49:24;;;;;;;2.60;1.48;;;;;;;18.95;45.34;101934.63;5021972;28;20037;-75
2021/01/06 08:51:53;;;;;;;1.48;1.00;;;;;;;18.96;45.20;101929.38;5016143;28;20029;-74
2021/01/06 08:54:30;;;;;;;2.08;1.23;;;;;;;18.90;45.44;101919.72;4997573;28;20018;-74
2021/01/06 08:57:00;;;;;;;2.45;1.20;;;;;;;18.94;45.23;101919.75;5007011;28;20053;-74
2021/01/06 08:59:27;;;;;;;1.90;1.20;;;;;;;18.97;45.23;101925.00;5017473;28;20391;-74
2021/01/06 09:01:59;;;;;;;1.70;1.13;;;;;;;18.88;45.33;101918.81;5030481;28;20033;-75
2021/01/06 09:04:42;;;;;;;3.30;1.00;;;;;;;18.88;45.55;101925.78;5060725;28;20021;-75
2021/01/06 09:07:30;;;;;;;2.20;1.13;;;;;;;18.82;45.48;101926.63;5053909;28;20020;-76
2021/01/06 09:10:08;;;;;;;5.22;1.90;;;;;;;18.77;45.49;101919.56;5050188;28;20064;-75
2021/01/06 09:12:55;;;;;;;3.28;1.15;;;;;;;18.79;45.33;101921.34;5053784;28;20541;-76
2021/01/06 09:15:33;;;;;;;3.05;1.73;;;;;;;18.85;45.99;101918.78;5050656;28;20045;-77
2021/01/06 09:18:15;;;;;;;3.17;1.30;;;;;;;18.93;45.65;101921.50;5042367;28;20032;-70
2021/01/06 09:21:01;;;;;;;3.90;1.75;;;;;;;19.00;45.62;101920.69;5048986;28;20467;-77
2021/01/06 09:23:27;;;;;;;3.58;1.20;;;;;;;19.02;45.55;101925.94;5052266;28;20116;-77
2021/01/06 09:25:53;;;;;;;2.35;1.13;;;;;;;18.99;45.44;101926.78;5047926;28;20037;-78
2021/01/06 09:28:19;;;;;;;3.10;1.30;;;;;;;18.96;45.63;101928.47;4998954;28;20033;-78
2021/01/06 09:30:46;;;;;;;2.88;1.30;;;;;;;18.97;45.70;101919.75;5043486;28;20082;-78
2021/01/06 09:33:27;;;;;;;2.97;0.95;;;;;;;18.93;45.36;101916.25;5023479;28;20090;-78
2021/01/06 09:35:53;;;;;;;2.53;1.33;;;;;;;18.95;45.67;101929.38;5037368;28;20029;-76
2021/01/06 09:38:34;;;;;;;2.38;1.58;;;;;;;18.98;45.64;101924.13;5050721;28;20029;-79
2021/01/06 09:41:11;;;;;;;1.67;1.08;;;;;;;18.97;45.42;101925.88;5027086;28;20399;-78
2021/01/06 09:43:47;;;;;;;2.72;1.33;;;;;;;18.96;45.47;101925.88;5038922;28;20018;-78
2021/01/06 09:46:37;;;;;;;1.38;1.00;;;;;;;18.95;45.51;101927.63;5033517;28;20101;-78
2021/01/06 09:49:14;;;;;;;2.45;1.30;;;;;;;18.95;45.51;101918.88;5024067;28;20036;-78
2021/01/06 09:51:45;;;;;;;2.28;1.50;;;;;;;18.96;45.53;101923.25;5043325;28;20093;-78
2021/01/06 09:54:12;;;;;;;2.83;1.13;;;;;;;18.99;45.38;101924.16;5049820;28;20392;-77
2021/01/06 09:56:38;;;;;;;1.75;0.90;;;;;;;18.96;45.29;101925.88;5056885;28;20502;-78
2021/01/06 09:59:15;;;;;;;2.45;0.95;;;;;;;18.96;45.39;101921.50;5022020;28;20029;-79
2021/01/06 10:02:04;;;;;;;1.65;0.90;;;;;;;18.96;45.40;101912.75;5050106;28;20032;-78
2021/01/06 10:04:38;;;;;;;1.60;1.10;;;;;;;18.96;45.24;101918.88;5055940;28;20037;-78
2021/01/06 10:07:26;;;;;;;2.13;1.00;;;;;;;18.95;45.46;101914.53;5052450;28;20475;-77
2021/01/06 10:09:57;;;;;;;2.70;1.20;;;;;;;18.98;45.24;101913.66;5046683;28;20471;-77
2021/01/06 10:13:00;;;;;;;2.42;1.27;;;;;;;18.99;45.25;101912.78;5055524;28;20055;-78
2021/01/06 10:15:54;;;;;;;2.65;1.30;;;;;;;19.00;45.39;101914.56;5052357;28;20091;-78
2021/01/06 10:18:50;;;;;;;1.30;0.93;;;;;;;19.01;45.36;101911.94;5041290;28;20023;-78
2021/01/06 10:21:21;;;;;;;2.72;1.00;;;;;;;19.00;45.05;101912.81;5054497;28;20514;-77
2021/01/06 10:24:17;;;;;;;2.65;1.00;;;;;;;19.01;45.23;101903.22;5050509;28;20059;-77
2021/01/06 10:26:49;;;;;;;1.45;1.05;;;;;;;19.01;45.29;101901.47;5049593;28;20031;-78
2021/01/06 10:29:21;;;;;;;1.92;1.13;;;;;;;19.01;45.29;101903.22;5049343;28;20032;-78
2021/01/06 10:32:16;;;;;;;1.35;1.02;;;;;;;19.03;45.23;101891.00;5056004;28;20013;-77
2021/01/06 10:34:45;;;;;;;2.58;1.20;;;;;;;19.03;45.29;101889.25;4982479;28;20613;-77
2021/01/06 10:37:17;;;;;;;1.77;1.15;;;;;;;19.00;45.31;101883.97;5040948;28;20043;-77
2021/01/06 10:39:45;;;;;;;1.40;0.90;;;;;;;19.00;45.25;101886.59;5053455;28;20032;-77
2021/01/06 10:42:33;;;;;;;1.42;0.93;;;;;;;19.04;45.19;101891.00;5030816;28;20163;-77
2021/01/06 10:45:14;;;;;;;1.33;0.80;;;;;;;19.02;45.10;101881.38;5055579;28;20029;-77
2021/01/06 10:47:51;;;;;;;1.23;0.80;;;;;;;19.02;45.18;101881.38;5045578;28;20081;-78
2021/01/06 10:50:22;;;;;;;1.63;0.90;;;;;;;18.98;45.36;101885.69;5042475;28;20037;-77
2021/01/06 10:53:00;;;;;;;1.50;0.90;;;;;;;18.92;45.36;101873.44;5048912;28;20021;-77
2021/01/06 10:56:05;;;;;;;1.23;0.85;;;;;;;18.89;45.37;101877.75;5053048;28;20052;-77
2021/01/06 10:58:45;;;;;;;2.42;1.17;;;;;;;18.88;45.44;101874.25;5054280;28;20075;-78
2021/01/06 11:01:15;;;;;;;0.85;0.75;;;;;;;18.87;45.55;101866.38;5031956;28;20124;-77
2021/01/06 11:03:58;;;;;;;1.42;0.82;;;;;;;18.85;45.59;101879.47;5038819;28;20046;-78
2021/01/06 11:06:33;;;;;;;1.30;0.90;;;;;;;18.82;45.63;101868.09;5042365;28;20029;-77
2021/01/06 11:09:33;;;;;;;2.35;1.65;;;;;;;18.80;45.80;101865.44;5033789;28;20053;-77
2021/01/06 11:12:11;;;;;;;1.60;0.90;;;;;;;18.80;45.48;101875.06;5024181;28;20025;-77
2021/01/06 11:15:08;;;;;;;2.83;1.05;;;;;;;18.77;45.76;101869.78;5035416;28;20395;-76
2021/01/06 11:17:37;;;;;;;5.72;0.98;;;;;;;18.75;45.64;101858.41;5011067;28;20495;-77
2021/01/06 11:20:30;;;;;;;5.03;1.20;;;;;;;18.78;45.77;101856.69;5013727;28;20030;-77
2021/01/06 11:23:26;;;;;;;1.85;0.80;;;;;;;18.78;45.50;101853.19;5031446;28;20034;-77
2021/01/06 11:25:58;;;;;;;1.17;0.98;;;;;;;18.86;45.63;101849.78;5005637;28;20038;-77
2021/01/06 11:28:28;;;;;;;1.27;0.77;;;;;;;18.91;45.86;101852.44;5013340;28;20068;-77
2021/01/06 11:31:12;;;;;;;1.17;0.80;;;;;;;18.89;45.69;101839.31;5016963;28;20029;-78
2021/01/06 11:33:37;;;;;;;1.92;1.30;;;;;;;18.96;45.63;101832.38;5012403;28;20018;-76
2021/01/06 11:36:06;;;;;;;2.67;1.10;;;;;;;18.99;45.51;101828.91;5017599;28;20086;-77
2021/01/06 11:38:45;;;;;;;2.08;1.00;;;;;;;18.97;45.70;101831.50;5034797;28;20480;-75
2021/01/06 11:41:18;;;;;;;1.60;0.90;;;;;;;18.98;45.77;101821.91;5036019;28;20476;-77
2021/01/06 11:43:53;;;;;;;1.65;0.98;;;;;;;19.12;45.56;101823.78;5006070;28;20057;-78
2021/01/06 11:46:43;;;;;;;1.65;1.10;;;;;;;19.21;45.51;101820.38;5031087;28;20057;-76
2021/01/06 11:49:12;;;;;;;1.90;1.10;;;;;;;19.21;45.44;101805.50;5016732;28;20056;-78
2021/01/06 11:51:39;;;;;;;1.60;0.90;;;;;;;19.19;45.38;101811.63;5034434;28;20025;-77
2021/01/06 11:54:16;;;;;;;2.47;0.98;;;;;;;19.25;45.55;101807.28;5014471;28;20029;-74
2021/01/06 11:56:48;;;;;;;2.60;1.02;;;;;;;19.23;45.28;101803.75;5022522;28;20122;-73
2021/01/06 11:59:38;;;;;;;1.08;0.80;;;;;;;19.21;45.64;101804.66;5012172;28;20364;-73
2021/01/06 12:02:16;;;;;;;1.63;1.08;;;;;;;19.24;45.74;101800.28;5026284;28;20033;-72